8TN9 weather

Bull Run Airport
Covington, Tennessee, United States

Public forecast

Using degrees Fahrenheit for public forecast. Weather courtesy of forecast.io.

METAR (pilot weather report)

Closest report is Millington-Memphis Airport, 13.4 nm (24.8 km) SW. Retrieved 2019/05/21 08:35 UTC (4 minutes ago):

KNQA 210835Z AUTO 15006KT 10SM SCT048 SCT055 23/20 A2983 RMK A01

TAF (pilot weather forecast)

Closest forecast is Memphis International Airport, 32.0 nm (59.2 km) SSW. Retrieved 2019/05/21 06:22 UTC (2 hours ago):

TAF KMEM 210520Z 2106/2212 15011KT P6SM BKN250 FM211400 18015G20KT P6SM SCT045 FM211800 18019G26KT P6SM FEW045 FM220300 17020G27KT P6SM VCTS SCT035CB FM220600 18015G20KT 6SM -SHRA BKN025